sensor_id;sensor_type;location;lat;lon;timestamp;P1;durP1;ratioP1;P2;durP2;ratioP2
84638;SDS011;74869;51.924;5.712;2024-01-15T00:01:41;6.23;;;0.73;;
84638;SDS011;74869;51.924;5.712;2024-01-15T00:04:08;4.85;;;0.85;;
84638;SDS011;74869;51.924;5.712;2024-01-15T00:06:33;3.77;;;0.90;;
84638;SDS011;74869;51.924;5.712;2024-01-15T00:08:58;2.60;;;0.80;;
84638;SDS011;74869;51.924;5.712;2024-01-15T00:11:24;6.17;;;0.83;;
84638;SDS011;74869;51.924;5.712;2024-01-15T00:13:49;4.13;;;0.80;;
84638;SDS011;74869;51.924;5.712;2024-01-15T00:16:14;3.60;;;1.20;;
84638;SDS011;74869;51.924;5.712;2024-01-15T00:18:40;2.30;;;0.70;;
84638;SDS011;74869;51.924;5.712;2024-01-15T00:21:05;4.93;;;1.03;;
84638;SDS011;74869;51.924;5.712;2024-01-15T00:23:30;5.43;;;0.97;;
84638;SDS011;74869;51.924;5.712;2024-01-15T00:25:56;2.57;;;0.90;;
84638;SDS011;74869;51.924;5.712;2024-01-15T00:28:21;7.93;;;0.95;;
84638;SDS011;74869;51.924;5.712;2024-01-15T00:30:46;3.73;;;0.70;;
84638;SDS011;74869;51.924;5.712;2024-01-15T00:33:12;5.87;;;1.00;;
84638;SDS011;74869;51.924;5.712;2024-01-15T00:35:37;5.97;;;1.10;;
84638;SDS011;74869;51.924;5.712;2024-01-15T00:38:03;4.00;;;1.00;;
84638;SDS011;74869;51.924;5.712;2024-01-15T00:40:28;5.68;;;0.85;;
84638;SDS011;74869;51.924;5.712;2024-01-15T00:42:53;9.63;;;1.00;;
84638;SDS011;74869;51.924;5.712;2024-01-15T00:45:19;2.90;;;0.90;;
84638;SDS011;74869;51.924;5.712;2024-01-15T00:47:44;1.80;;;0.47;;
84638;SDS011;74869;51.924;5.712;2024-01-15T00:50:09;6.77;;;0.90;;
84638;SDS011;74869;51.924;5.712;2024-01-15T00:52:35;6.35;;;1.15;;
84638;SDS011;74869;51.924;5.712;2024-01-15T00:55:00;8.95;;;1.58;;
84638;SDS011;74869;51.924;5.712;2024-01-15T00:57:25;7.75;;;1.20;;
84638;SDS011;74869;51.924;5.712;2024-01-15T00:59:51;5.30;;;1.47;;
84638;SDS011;74869;51.924;5.712;2024-01-15T01:02:16;3.17;;;1.03;;
84638;SDS011;74869;51.924;5.712;2024-01-15T01:04:42;4.07;;;0.80;;
84638;SDS011;74869;51.924;5.712;2024-01-15T01:07:07;8.60;;;1.50;;
84638;SDS011;74869;51.924;5.712;2024-01-15T01:09:33;5.07;;;0.88;;
84638;SDS011;74869;51.924;5.712;2024-01-15T01:11:58;4.55;;;1.45;;
84638;SDS011;74869;51.924;5.712;2024-01-15T01:14:23;5.95;;;0.70;;
84638;SDS011;74869;51.924;5.712;2024-01-15T01:16:49;3.50;;;1.00;;
84638;SDS011;74869;51.924;5.712;2024-01-15T01:19:14;3.40;;;0.90;;
84638;SDS011;74869;51.924;5.712;2024-01-15T01:21:40;3.47;;;0.80;;
84638;SDS011;74869;51.924;5.712;2024-01-15T01:24:05;5.00;;;0.90;;
84638;SDS011;74869;51.924;5.712;2024-01-15T01:26:31;6.30;;;0.90;;
84638;SDS011;74869;51.924;5.712;2024-01-15T01:28:56;5.55;;;1.30;;
84638;SDS011;74869;51.924;5.712;2024-01-15T01:31:22;4.00;;;1.10;;
84638;SDS011;74869;51.924;5.712;2024-01-15T01:33:48;3.40;;;0.75;;
84638;SDS011;74869;51.924;5.712;2024-01-15T01:36:14;4.10;;;0.53;;
84638;SDS011;74869;51.924;5.712;2024-01-15T01:38:39;3.30;;;0.67;;
84638;SDS011;74869;51.924;5.712;2024-01-15T01:41:05;6.00;;;1.17;;
84638;SDS011;74869;51.924;5.712;2024-01-15T01:43:30;3.57;;;0.77;;
84638;SDS011;74869;51.924;5.712;2024-01-15T01:45:56;4.55;;;0.95;;
84638;SDS011;74869;51.924;5.712;2024-01-15T01:48:23;7.07;;;1.50;;
84638;SDS011;74869;51.924;5.712;2024-01-15T01:50:50;3.08;;;0.80;;
84638;SDS011;74869;51.924;5.712;2024-01-15T01:53:15;4.00;;;1.10;;
84638;SDS011;74869;51.924;5.712;2024-01-15T01:55:41;2.58;;;1.42;;
84638;SDS011;74869;51.924;5.712;2024-01-15T01:58:06;4.63;;;1.47;;
84638;SDS011;74869;51.924;5.712;2024-01-15T02:00:32;3.05;;;1.10;;
84638;SDS011;74869;51.924;5.712;2024-01-15T02:03:00;6.90;;;1.20;;
84638;SDS011;74869;51.924;5.712;2024-01-15T02:05:25;5.15;;;0.93;;
84638;SDS011;74869;51.924;5.712;2024-01-15T02:07:52;10.05;;;2.03;;
84638;SDS011;74869;51.924;5.712;2024-01-15T02:10:18;8.30;;;1.38;;
84638;SDS011;74869;51.924;5.712;2024-01-15T02:12:43;8.57;;;1.30;;
84638;SDS011;74869;51.924;5.712;2024-01-15T02:15:09;7.00;;;0.80;;
84638;SDS011;74869;51.924;5.712;2024-01-15T02:17:34;2.53;;;0.73;;
84638;SDS011;74869;51.924;5.712;2024-01-15T02:19:59;4.27;;;1.30;;
84638;SDS011;74869;51.924;5.712;2024-01-15T02:22:25;4.23;;;1.03;;
84638;SDS011;74869;51.924;5.712;2024-01-15T02:24:50;6.00;;;0.93;;
84638;SDS011;74869;51.924;5.712;2024-01-15T02:27:15;6.88;;;0.98;;
84638;SDS011;74869;51.924;5.712;2024-01-15T02:29:41;6.88;;;1.40;;
84638;SDS011;74869;51.924;5.712;2024-01-15T02:32:08;5.53;;;1.20;;
84638;SDS011;74869;51.924;5.712;2024-01-15T02:34:34;5.53;;;1.35;;
84638;SDS011;74869;51.924;5.712;2024-01-15T02:36:59;2.83;;;0.90;;
84638;SDS011;74869;51.924;5.712;2024-01-15T02:39:25;7.95;;;1.30;;
84638;SDS011;74869;51.924;5.712;2024-01-15T02:41:50;4.07;;;1.15;;
84638;SDS011;74869;51.924;5.712;2024-01-15T02:44:15;5.73;;;1.60;;
84638;SDS011;74869;51.924;5.712;2024-01-15T02:46:41;6.57;;;1.43;;
84638;SDS011;74869;51.924;5.712;2024-01-15T02:49:06;6.23;;;1.30;;
84638;SDS011;74869;51.924;5.712;2024-01-15T02:51:31;10.77;;;2.20;;
84638;SDS011;74869;51.924;5.712;2024-01-15T02:53:57;5.32;;;0.75;;
84638;SDS011;74869;51.924;5.712;2024-01-15T02:56:22;6.17;;;0.77;;
84638;SDS011;74869;51.924;5.712;2024-01-15T02:58:47;4.20;;;0.60;;
84638;SDS011;74869;51.924;5.712;2024-01-15T03:01:13;7.63;;;1.63;;
84638;SDS011;74869;51.924;5.712;2024-01-15T03:03:39;5.28;;;1.15;;
84638;SDS011;74869;51.924;5.712;2024-01-15T03:06:05;7.32;;;1.17;;
84638;SDS011;74869;51.924;5.712;2024-01-15T03:08:31;6.13;;;0.95;;
84638;SDS011;74869;51.924;5.712;2024-01-15T03:10:56;3.60;;;0.60;;
84638;SDS011;74869;51.924;5.712;2024-01-15T03:13:21;3.75;;;0.90;;
84638;SDS011;74869;51.924;5.712;2024-01-15T03:15:47;5.73;;;0.90;;
84638;SDS011;74869;51.924;5.712;2024-01-15T03:18:12;8.27;;;1.73;;
84638;SDS011;74869;51.924;5.712;2024-01-15T03:20:37;2.07;;;0.60;;
84638;SDS011;74869;51.924;5.712;2024-01-15T03:23:03;3.03;;;1.03;;
84638;SDS011;74869;51.924;5.712;2024-01-15T03:25:28;3.72;;;0.90;;
84638;SDS011;74869;51.924;5.712;2024-01-15T03:27:53;7.87;;;1.03;;
84638;SDS011;74869;51.924;5.712;2024-01-15T03:30:19;10.43;;;1.07;;
84638;SDS011;74869;51.924;5.712;2024-01-15T03:32:44;6.00;;;1.13;;
84638;SDS011;74869;51.924;5.712;2024-01-15T03:35:10;6.18;;;1.83;;
84638;SDS011;74869;51.924;5.712;2024-01-15T03:37:35;2.90;;;1.13;;
84638;SDS011;74869;51.924;5.712;2024-01-15T03:40:00;6.00;;;1.30;;
84638;SDS011;74869;51.924;5.712;2024-01-15T03:42:26;3.33;;;0.80;;
84638;SDS011;74869;51.924;5.712;2024-01-15T03:44:51;6.10;;;2.43;;
84638;SDS011;74869;51.924;5.712;2024-01-15T03:47:16;6.63;;;1.20;;
84638;SDS011;74869;51.924;5.712;2024-01-15T03:49:42;6.20;;;1.53;;
84638;SDS011;74869;51.924;5.712;2024-01-15T03:52:07;5.63;;;0.87;;
84638;SDS011;74869;51.924;5.712;2024-01-15T03:54:32;3.27;;;1.20;;
84638;SDS011;74869;51.924;5.712;2024-01-15T03:56:58;5.20;;;0.88;;
84638;SDS011;74869;51.924;5.712;2024-01-15T03:59:23;2.77;;;0.87;;
84638;SDS011;74869;51.924;5.712;2024-01-15T04:01:49;4.40;;;0.93;;
84638;SDS011;74869;51.924;5.712;2024-01-15T04:04:17;9.70;;;1.90;;
84638;SDS011;74869;51.924;5.712;2024-01-15T04:06:43;5.07;;;0.80;;
84638;SDS011;74869;51.924;5.712;2024-01-15T04:09:08;10.40;;;1.10;;
84638;SDS011;74869;51.924;5.712;2024-01-15T04:11:33;7.07;;;1.13;;
84638;SDS011;74869;51.924;5.712;2024-01-15T04:13:58;7.83;;;1.20;;
84638;SDS011;74869;51.924;5.712;2024-01-15T04:16:24;5.07;;;0.77;;
84638;SDS011;74869;51.924;5.712;2024-01-15T04:18:49;5.13;;;1.47;;
84638;SDS011;74869;51.924;5.712;2024-01-15T04:21:16;2.43;;;0.73;;
84638;SDS011;74869;51.924;5.712;2024-01-15T04:23:42;1.50;;;0.57;;
84638;SDS011;74869;51.924;5.712;2024-01-15T04:26:08;6.53;;;1.38;;
84638;SDS011;74869;51.924;5.712;2024-01-15T04:28:33;6.87;;;1.40;;
84638;SDS011;74869;51.924;5.712;2024-01-15T04:30:58;10.27;;;1.77;;
84638;SDS011;74869;51.924;5.712;2024-01-15T04:33:24;5.77;;;1.47;;
84638;SDS011;74869;51.924;5.712;2024-01-15T04:35:49;5.73;;;1.57;;
84638;SDS011;74869;51.924;5.712;2024-01-15T04:38:14;6.80;;;2.00;;
84638;SDS011;74869;51.924;5.712;2024-01-15T04:40:39;3.50;;;0.90;;
84638;SDS011;74869;51.924;5.712;2024-01-15T04:43:05;7.78;;;2.10;;
84638;SDS011;74869;51.924;5.712;2024-01-15T04:45:31;6.45;;;1.30;;
84638;SDS011;74869;51.924;5.712;2024-01-15T04:47:56;4.75;;;1.02;;
84638;SDS011;74869;51.924;5.712;2024-01-15T04:50:22;3.88;;;1.23;;
84638;SDS011;74869;51.924;5.712;2024-01-15T04:52:49;5.55;;;1.52;;
84638;SDS011;74869;51.924;5.712;2024-01-15T04:55:15;6.53;;;1.40;;
84638;SDS011;74869;51.924;5.712;2024-01-15T04:57:40;3.08;;;1.35;;
84638;SDS011;74869;51.924;5.712;2024-01-15T05:00:06;3.53;;;1.25;;
84638;SDS011;74869;51.924;5.712;2024-01-15T05:02:31;5.60;;;1.40;;
84638;SDS011;74869;51.924;5.712;2024-01-15T05:04:57;5.38;;;1.33;;
84638;SDS011;74869;51.924;5.712;2024-01-15T05:07:22;3.87;;;1.30;;
84638;SDS011;74869;51.924;5.712;2024-01-15T05:09:48;3.35;;;1.13;;
84638;SDS011;74869;51.924;5.712;2024-01-15T05:12:13;5.93;;;1.17;;
84638;SDS011;74869;51.924;5.712;2024-01-15T05:14:38;5.53;;;1.20;;
84638;SDS011;74869;51.924;5.712;2024-01-15T05:17:04;5.40;;;1.20;;
84638;SDS011;74869;51.924;5.712;2024-01-15T05:19:29;3.23;;;1.00;;
84638;SDS011;74869;51.924;5.712;2024-01-15T05:21:54;1.98;;;1.00;;
84638;SDS011;74869;51.924;5.712;2024-01-15T05:24:20;3.93;;;1.07;;
84638;SDS011;74869;51.924;5.712;2024-01-15T05:26:45;6.43;;;1.10;;
84638;SDS011;74869;51.924;5.712;2024-01-15T05:29:10;3.87;;;1.40;;
84638;SDS011;74869;51.924;5.712;2024-01-15T05:31:35;3.90;;;1.00;;
84638;SDS011;74869;51.924;5.712;2024-01-15T05:34:01;6.27;;;1.50;;
84638;SDS011;74869;51.924;5.712;2024-01-15T05:36:26;6.50;;;1.43;;
84638;SDS011;74869;51.924;5.712;2024-01-15T05:38:51;7.13;;;1.60;;
84638;SDS011;74869;51.924;5.712;2024-01-15T05:41:17;4.47;;;1.50;;
84638;SDS011;74869;51.924;5.712;2024-01-15T05:43:43;3.97;;;1.75;;
84638;SDS011;74869;51.924;5.712;2024-01-15T05:46:08;7.37;;;1.67;;
84638;SDS011;74869;51.924;5.712;2024-01-15T05:48:33;3.67;;;1.83;;
84638;SDS011;74869;51.924;5.712;2024-01-15T05:50:59;3.50;;;1.30;;
84638;SDS011;74869;51.924;5.712;2024-01-15T05:53:24;3.97;;;1.10;;
84638;SDS011;74869;51.924;5.712;2024-01-15T05:55:50;4.05;;;0.90;;
84638;SDS011;74869;51.924;5.712;2024-01-15T05:58:15;1.60;;;0.80;;
84638;SDS011;74869;51.924;5.712;2024-01-15T06:00:40;3.30;;;1.07;;
84638;SDS011;74869;51.924;5.712;2024-01-15T06:03:06;3.15;;;1.02;;
84638;SDS011;74869;51.924;5.712;2024-01-15T06:05:31;1.90;;;0.83;;
84638;SDS011;74869;51.924;5.712;2024-01-15T06:07:56;2.90;;;1.10;;
84638;SDS011;74869;51.924;5.712;2024-01-15T06:10:22;2.10;;;1.15;;
84638;SDS011;74869;51.924;5.712;2024-01-15T06:15:22;4.35;;;1.52;;
84638;SDS011;74869;51.924;5.712;2024-01-15T06:17:48;5.10;;;1.50;;
84638;SDS011;74869;51.924;5.712;2024-01-15T06:20:13;5.93;;;2.30;;
84638;SDS011;74869;51.924;5.712;2024-01-15T06:22:38;6.53;;;3.03;;
84638;SDS011;74869;51.924;5.712;2024-01-15T06:25:05;6.55;;;2.92;;
84638;SDS011;74869;51.924;5.712;2024-01-15T06:27:33;5.15;;;2.42;;
84638;SDS011;74869;51.924;5.712;2024-01-15T06:29:59;6.47;;;3.50;;
84638;SDS011;74869;51.924;5.712;2024-01-15T06:32:24;6.23;;;3.53;;
84638;SDS011;74869;51.924;5.712;2024-01-15T06:34:49;11.23;;;4.50;;
84638;SDS011;74869;51.924;5.712;2024-01-15T06:37:15;8.23;;;3.60;;
84638;SDS011;74869;51.924;5.712;2024-01-15T06:39:40;8.48;;;4.63;;
84638;SDS011;74869;51.924;5.712;2024-01-15T06:42:06;9.50;;;4.60;;
84638;SDS011;74869;51.924;5.712;2024-01-15T06:44:31;7.82;;;4.55;;
84638;SDS011;74869;51.924;5.712;2024-01-15T06:46:56;13.23;;;4.83;;
84638;SDS011;74869;51.924;5.712;2024-01-15T06:49:27;8.98;;;4.95;;
84638;SDS011;74869;51.924;5.712;2024-01-15T06:51:52;9.77;;;4.70;;
84638;SDS011;74869;51.924;5.712;2024-01-15T06:54:17;6.93;;;4.50;;
84638;SDS011;74869;51.924;5.712;2024-01-15T06:56:44;8.33;;;4.33;;
84638;SDS011;74869;51.924;5.712;2024-01-15T06:59:09;7.90;;;4.47;;
84638;SDS011;74869;51.924;5.712;2024-01-15T07:01:34;10.70;;;5.03;;
84638;SDS011;74869;51.924;5.712;2024-01-15T07:04:00;8.43;;;5.10;;
84638;SDS011;74869;51.924;5.712;2024-01-15T07:06:25;8.37;;;5.47;;
84638;SDS011;74869;51.924;5.712;2024-01-15T07:08:50;13.30;;;5.20;;
84638;SDS011;74869;51.924;5.712;2024-01-15T07:11:17;10.00;;;5.60;;
84638;SDS011;74869;51.924;5.712;2024-01-15T07:13:42;9.30;;;5.53;;
84638;SDS011;74869;51.924;5.712;2024-01-15T07:16:07;10.10;;;5.83;;
84638;SDS011;74869;51.924;5.712;2024-01-15T07:18:33;10.67;;;6.20;;
84638;SDS011;74869;51.924;5.712;2024-01-15T07:20:58;14.23;;;5.83;;
84638;SDS011;74869;51.924;5.712;2024-01-15T07:23:24;8.00;;;4.53;;
84638;SDS011;74869;51.924;5.712;2024-01-15T07:25:49;9.30;;;4.97;;
84638;SDS011;74869;51.924;5.712;2024-01-15T07:28:14;8.40;;;4.37;;
84638;SDS011;74869;51.924;5.712;2024-01-15T07:30:40;9.70;;;5.35;;
84638;SDS011;74869;51.924;5.712;2024-01-15T07:33:05;8.57;;;4.73;;
84638;SDS011;74869;51.924;5.712;2024-01-15T07:35:31;6.37;;;3.90;;
84638;SDS011;74869;51.924;5.712;2024-01-15T07:37:57;6.35;;;3.08;;
84638;SDS011;74869;51.924;5.712;2024-01-15T07:40:22;3.83;;;2.67;;
84638;SDS011;74869;51.924;5.712;2024-01-15T07:42:47;8.15;;;3.78;;
84638;SDS011;74869;51.924;5.712;2024-01-15T07:45:13;9.20;;;3.70;;
84638;SDS011;74869;51.924;5.712;2024-01-15T07:47:38;9.23;;;4.40;;
84638;SDS011;74869;51.924;5.712;2024-01-15T07:50:03;9.10;;;4.73;;
84638;SDS011;74869;51.924;5.712;2024-01-15T07:52:30;7.13;;;4.93;;
84638;SDS011;74869;51.924;5.712;2024-01-15T07:54:55;10.07;;;3.97;;
84638;SDS011;74869;51.924;5.712;2024-01-15T07:57:21;6.45;;;2.88;;
84638;SDS011;74869;51.924;5.712;2024-01-15T07:59:47;4.82;;;2.67;;
84638;SDS011;74869;51.924;5.712;2024-01-15T08:02:12;6.90;;;2.63;;
84638;SDS011;74869;51.924;5.712;2024-01-15T08:04:38;4.33;;;2.43;;
84638;SDS011;74869;51.924;5.712;2024-01-15T08:07:03;5.22;;;2.90;;
84638;SDS011;74869;51.924;5.712;2024-01-15T08:09:30;4.85;;;2.28;;
84638;SDS011;74869;51.924;5.712;2024-01-15T08:11:56;3.50;;;1.83;;
84638;SDS011;74869;51.924;5.712;2024-01-15T08:14:21;4.97;;;2.13;;
84638;SDS011;74869;51.924;5.712;2024-01-15T08:16:46;2.43;;;1.77;;
84638;SDS011;74869;51.924;5.712;2024-01-15T08:19:12;3.27;;;2.43;;
84638;SDS011;74869;51.924;5.712;2024-01-15T08:21:37;3.38;;;1.95;;
84638;SDS011;74869;51.924;5.712;2024-01-15T08:24:02;4.10;;;1.97;;
84638;SDS011;74869;51.924;5.712;2024-01-15T08:26:28;4.18;;;1.75;;
84638;SDS011;74869;51.924;5.712;2024-01-15T08:28:54;3.72;;;2.20;;
84638;SDS011;74869;51.924;5.712;2024-01-15T08:31:19;3.45;;;1.70;;
84638;SDS011;74869;51.924;5.712;2024-01-15T08:33:45;5.13;;;2.47;;
84638;SDS011;74869;51.924;5.712;2024-01-15T08:36:11;6.05;;;2.65;;
84638;SDS011;74869;51.924;5.712;2024-01-15T08:38:36;6.18;;;2.65;;
84638;SDS011;74869;51.924;5.712;2024-01-15T08:41:01;5.10;;;3.00;;
84638;SDS011;74869;51.924;5.712;2024-01-15T08:43:27;4.50;;;2.22;;
84638;SDS011;74869;51.924;5.712;2024-01-15T08:45:52;3.65;;;2.33;;
84638;SDS011;74869;51.924;5.712;2024-01-15T08:48:18;4.40;;;2.60;;
84638;SDS011;74869;51.924;5.712;2024-01-15T08:50:44;4.35;;;2.63;;
84638;SDS011;74869;51.924;5.712;2024-01-15T08:53:12;4.75;;;2.30;;
84638;SDS011;74869;51.924;5.712;2024-01-15T08:55:38;4.60;;;2.90;;
84638;SDS011;74869;51.924;5.712;2024-01-15T08:58:03;5.97;;;2.77;;
84638;SDS011;74869;51.924;5.712;2024-01-15T09:00:28;4.68;;;2.78;;
84638;SDS011;74869;51.924;5.712;2024-01-15T09:02:55;3.35;;;2.53;;
84638;SDS011;74869;51.924;5.712;2024-01-15T09:05:23;3.65;;;1.85;;
84638;SDS011;74869;51.924;5.712;2024-01-15T09:07:49;4.10;;;1.97;;
84638;SDS011;74869;51.924;5.712;2024-01-15T09:10:16;3.65;;;1.85;;
84638;SDS011;74869;51.924;5.712;2024-01-15T09:12:42;4.72;;;1.77;;
84638;SDS011;74869;51.924;5.712;2024-01-15T09:15:07;5.10;;;1.60;;
84638;SDS011;74869;51.924;5.712;2024-01-15T09:17:33;3.10;;;1.13;;
84638;SDS011;74869;51.924;5.712;2024-01-15T09:19:59;6.53;;;1.50;;
84638;SDS011;74869;51.924;5.712;2024-01-15T09:22:25;1.95;;;1.00;;
84638;SDS011;74869;51.924;5.712;2024-01-15T09:24:51;5.13;;;1.70;;
84638;SDS011;74869;51.924;5.712;2024-01-15T09:27:17;7.72;;;1.63;;
84638;SDS011;74869;51.924;5.712;2024-01-15T09:29:42;2.40;;;1.13;;
84638;SDS011;74869;51.924;5.712;2024-01-15T09:32:10;4.38;;;1.13;;
84638;SDS011;74869;51.924;5.712;2024-01-15T09:34:36;4.70;;;1.08;;
84638;SDS011;74869;51.924;5.712;2024-01-15T09:37:01;2.38;;;0.90;;
84638;SDS011;74869;51.924;5.712;2024-01-15T09:39:27;2.20;;;1.08;;
84638;SDS011;74869;51.924;5.712;2024-01-15T09:41:53;2.03;;;1.00;;
84638;SDS011;74869;51.924;5.712;2024-01-15T09:44:19;0.82;;;0.50;;
84638;SDS011;74869;51.924;5.712;2024-01-15T09:46:46;2.85;;;1.08;;
84638;SDS011;74869;51.924;5.712;2024-01-15T09:49:14;3.85;;;1.20;;
84638;SDS011;74869;51.924;5.712;2024-01-15T09:51:40;5.20;;;0.98;;
84638;SDS011;74869;51.924;5.712;2024-01-15T09:54:07;1.35;;;0.80;;
84638;SDS011;74869;51.924;5.712;2024-01-15T09:56:33;4.75;;;1.25;;
84638;SDS011;74869;51.924;5.712;2024-01-15T09:58:59;1.10;;;1.00;;
84638;SDS011;74869;51.924;5.712;2024-01-15T10:01:25;2.17;;;0.98;;
84638;SDS011;74869;51.924;5.712;2024-01-15T10:03:51;2.30;;;1.10;;
84638;SDS011;74869;51.924;5.712;2024-01-15T10:06:18;2.10;;;1.08;;
84638;SDS011;74869;51.924;5.712;2024-01-15T10:08:47;1.30;;;0.73;;
84638;SDS011;74869;51.924;5.712;2024-01-15T10:11:13;4.32;;;1.08;;
84638;SDS011;74869;51.924;5.712;2024-01-15T10:13:39;2.08;;;1.15;;
84638;SDS011;74869;51.924;5.712;2024-01-15T10:16:04;4.18;;;1.40;;
84638;SDS011;74869;51.924;5.712;2024-01-15T10:18:30;2.40;;;1.52;;
84638;SDS011;74869;51.924;5.712;2024-01-15T10:20:56;6.80;;;2.60;;
84638;SDS011;74869;51.924;5.712;2024-01-15T10:23:22;4.80;;;2.72;;
84638;SDS011;74869;51.924;5.712;2024-01-15T10:25:48;5.50;;;3.28;;
84638;SDS011;74869;51.924;5.712;2024-01-15T10:28:13;8.03;;;3.27;;
84638;SDS011;74869;51.924;5.712;2024-01-15T10:30:39;8.88;;;3.75;;
84638;SDS011;74869;51.924;5.712;2024-01-15T10:33:04;7.63;;;3.83;;
84638;SDS011;74869;51.924;5.712;2024-01-15T10:35:30;6.60;;;4.28;;
84638;SDS011;74869;51.924;5.712;2024-01-15T10:37:56;9.02;;;5.35;;
84638;SDS011;74869;51.924;5.712;2024-01-15T10:40:22;8.35;;;5.35;;
84638;SDS011;74869;51.924;5.712;2024-01-15T10:42:48;7.90;;;4.53;;
84638;SDS011;74869;51.924;5.712;2024-01-15T10:45:14;7.17;;;4.60;;
84638;SDS011;74869;51.924;5.712;2024-01-15T10:47:40;10.18;;;4.80;;
84638;SDS011;74869;51.924;5.712;2024-01-15T10:50:06;7.50;;;4.00;;
84638;SDS011;74869;51.924;5.712;2024-01-15T10:52:33;6.53;;;3.55;;
84638;SDS011;74869;51.924;5.712;2024-01-15T10:55:00;6.00;;;3.35;;
84638;SDS011;74869;51.924;5.712;2024-01-15T10:57:26;7.50;;;3.03;;
84638;SDS011;74869;51.924;5.712;2024-01-15T10:59:52;4.53;;;2.40;;
84638;SDS011;74869;51.924;5.712;2024-01-15T11:02:17;3.93;;;2.13;;
84638;SDS011;74869;51.924;5.712;2024-01-15T11:04:43;3.85;;;2.05;;
84638;SDS011;74869;51.924;5.712;2024-01-15T11:07:08;3.73;;;1.97;;
84638;SDS011;74869;51.924;5.712;2024-01-15T11:09:36;3.70;;;1.73;;
84638;SDS011;74869;51.924;5.712;2024-01-15T11:14:45;3.85;;;1.38;;
84638;SDS011;74869;51.924;5.712;2024-01-15T11:17:12;2.97;;;1.33;;
84638;SDS011;74869;51.924;5.712;2024-01-15T11:19:42;5.80;;;1.65;;
84638;SDS011;74869;51.924;5.712;2024-01-15T11:24:55;5.13;;;1.30;;
84638;SDS011;74869;51.924;5.712;2024-01-15T11:27:40;4.00;;;1.50;;
84638;SDS011;74869;51.924;5.712;2024-01-15T11:30:10;2.45;;;1.15;;
84638;SDS011;74869;51.924;5.712;2024-01-15T11:35:06;4.20;;;0.73;;
84638;SDS011;74869;51.924;5.712;2024-01-15T11:40:23;1.58;;;0.73;;
84638;SDS011;74869;51.924;5.712;2024-01-15T11:43:02;1.95;;;0.85;;
84638;SDS011;74869;51.924;5.712;2024-01-15T11:45:28;3.20;;;0.98;;
84638;SDS011;74869;51.924;5.712;2024-01-15T11:50:29;3.50;;;0.80;;
84638;SDS011;74869;51.924;5.712;2024-01-15T11:53:00;7.55;;;1.10;;
84638;SDS011;74869;51.924;5.712;2024-01-15T11:55:27;4.32;;;0.90;;
84638;SDS011;74869;51.924;5.712;2024-01-15T11:58:00;2.95;;;0.93;;
84638;SDS011;74869;51.924;5.712;2024-01-15T12:00:27;3.90;;;0.88;;
84638;SDS011;74869;51.924;5.712;2024-01-15T12:02:53;5.18;;;1.33;;
84638;SDS011;74869;51.924;5.712;2024-01-15T12:05:19;5.70;;;0.70;;
84638;SDS011;74869;51.924;5.712;2024-01-15T12:07:46;2.75;;;0.77;;
84638;SDS011;74869;51.924;5.712;2024-01-15T12:10:16;1.75;;;0.75;;
84638;SDS011;74869;51.924;5.712;2024-01-15T12:15:23;3.65;;;1.27;;
84638;SDS011;74869;51.924;5.712;2024-01-15T12:17:50;1.45;;;0.73;;
84638;SDS011;74869;51.924;5.712;2024-01-15T12:20:16;2.83;;;1.02;;
84638;SDS011;74869;51.924;5.712;2024-01-15T12:22:43;1.98;;;0.93;;
84638;SDS011;74869;51.924;5.712;2024-01-15T12:25:08;3.50;;;1.10;;
84638;SDS011;74869;51.924;5.712;2024-01-15T12:27:34;1.15;;;0.73;;
84638;SDS011;74869;51.924;5.712;2024-01-15T12:30:00;4.90;;;1.05;;
84638;SDS011;74869;51.924;5.712;2024-01-15T12:32:25;3.85;;;1.10;;
84638;SDS011;74869;51.924;5.712;2024-01-15T12:34:51;3.55;;;1.02;;
84638;SDS011;74869;51.924;5.712;2024-01-15T12:37:19;2.33;;;0.90;;
84638;SDS011;74869;51.924;5.712;2024-01-15T12:39:45;6.78;;;1.15;;
84638;SDS011;74869;51.924;5.712;2024-01-15T12:42:11;8.40;;;1.30;;
84638;SDS011;74869;51.924;5.712;2024-01-15T12:44:37;6.55;;;1.30;;
84638;SDS011;74869;51.924;5.712;2024-01-15T12:47:05;2.70;;;1.33;;
84638;SDS011;74869;51.924;5.712;2024-01-15T12:49:31;4.43;;;1.10;;
84638;SDS011;74869;51.924;5.712;2024-01-15T12:51:57;4.43;;;1.02;;
84638;SDS011;74869;51.924;5.712;2024-01-15T12:54:22;3.13;;;0.93;;
84638;SDS011;74869;51.924;5.712;2024-01-15T12:56:49;1.85;;;0.88;;
84638;SDS011;74869;51.924;5.712;2024-01-15T12:59:14;4.30;;;1.13;;
84638;SDS011;74869;51.924;5.712;2024-01-15T13:01:40;4.83;;;1.10;;
84638;SDS011;74869;51.924;5.712;2024-01-15T13:04:06;1.77;;;0.70;;
84638;SDS011;74869;51.924;5.712;2024-01-15T13:06:33;2.83;;;1.20;;
84638;SDS011;74869;51.924;5.712;2024-01-15T13:08:59;2.80;;;0.93;;
84638;SDS011;74869;51.924;5.712;2024-01-15T13:11:25;4.43;;;1.23;;
84638;SDS011;74869;51.924;5.712;2024-01-15T13:13:52;5.85;;;1.25;;
84638;SDS011;74869;51.924;5.712;2024-01-15T13:16:18;5.43;;;1.17;;
84638;SDS011;74869;51.924;5.712;2024-01-15T13:18:45;6.88;;;1.73;;
84638;SDS011;74869;51.924;5.712;2024-01-15T13:21:11;2.72;;;0.60;;
84638;SDS011;74869;51.924;5.712;2024-01-15T13:23:37;4.03;;;1.15;;
84638;SDS011;74869;51.924;5.712;2024-01-15T13:26:03;1.55;;;0.70;;
84638;SDS011;74869;51.924;5.712;2024-01-15T13:28:29;2.88;;;1.00;;
84638;SDS011;74869;51.924;5.712;2024-01-15T13:30:54;1.60;;;0.40;;
84638;SDS011;74869;51.924;5.712;2024-01-15T13:33:20;4.63;;;0.70;;
84638;SDS011;74869;51.924;5.712;2024-01-15T13:35:45;3.17;;;0.93;;
84638;SDS011;74869;51.924;5.712;2024-01-15T13:38:14;1.33;;;0.60;;
84638;SDS011;74869;51.924;5.712;2024-01-15T13:40:39;2.77;;;0.67;;
84638;SDS011;74869;51.924;5.712;2024-01-15T13:43:05;4.07;;;1.40;;
84638;SDS011;74869;51.924;5.712;2024-01-15T13:45:33;1.40;;;0.85;;
84638;SDS011;74869;51.924;5.712;2024-01-15T13:47:59;2.33;;;1.00;;
84638;SDS011;74869;51.924;5.712;2024-01-15T13:50:24;3.08;;;1.27;;
84638;SDS011;74869;51.924;5.712;2024-01-15T13:52:50;2.83;;;0.77;;
84638;SDS011;74869;51.924;5.712;2024-01-15T13:55:15;3.50;;;1.00;;
84638;SDS011;74869;51.924;5.712;2024-01-15T13:57:40;1.88;;;0.80;;
84638;SDS011;74869;51.924;5.712;2024-01-15T14:00:06;2.60;;;1.23;;
84638;SDS011;74869;51.924;5.712;2024-01-15T14:02:36;1.50;;;0.90;;
84638;SDS011;74869;51.924;5.712;2024-01-15T14:05:01;3.78;;;1.40;;
84638;SDS011;74869;51.924;5.712;2024-01-15T14:07:27;1.83;;;1.10;;
84638;SDS011;74869;51.924;5.712;2024-01-15T14:09:52;3.17;;;1.30;;
84638;SDS011;74869;51.924;5.712;2024-01-15T14:12:17;2.90;;;1.17;;
84638;SDS011;74869;51.924;5.712;2024-01-15T14:14:43;1.80;;;1.20;;
84638;SDS011;74869;51.924;5.712;2024-01-15T14:17:09;1.45;;;1.13;;
84638;SDS011;74869;51.924;5.712;2024-01-15T14:19:35;1.48;;;0.98;;
84638;SDS011;74869;51.924;5.712;2024-01-15T14:22:00;1.95;;;1.05;;
84638;SDS011;74869;51.924;5.712;2024-01-15T14:24:26;2.63;;;1.07;;
84638;SDS011;74869;51.924;5.712;2024-01-15T14:26:52;4.72;;;1.40;;
84638;SDS011;74869;51.924;5.712;2024-01-15T14:29:18;1.93;;;1.10;;
84638;SDS011;74869;51.924;5.712;2024-01-15T14:31:47;2.50;;;1.40;;
84638;SDS011;74869;51.924;5.712;2024-01-15T14:34:12;2.40;;;1.67;;
84638;SDS011;74869;51.924;5.712;2024-01-15T14:36:38;7.10;;;1.70;;
84638;SDS011;74869;51.924;5.712;2024-01-15T14:39:03;3.87;;;1.60;;
84638;SDS011;74869;51.924;5.712;2024-01-15T14:41:29;2.77;;;0.83;;
84638;SDS011;74869;51.924;5.712;2024-01-15T14:43:55;3.35;;;0.98;;
84638;SDS011;74869;51.924;5.712;2024-01-15T14:46:22;3.08;;;0.90;;
84638;SDS011;74869;51.924;5.712;2024-01-15T14:48:47;7.35;;;2.22;;
84638;SDS011;74869;51.924;5.712;2024-01-15T14:51:12;5.80;;;1.20;;
84638;SDS011;74869;51.924;5.712;2024-01-15T14:53:38;4.97;;;1.13;;
84638;SDS011;74869;51.924;5.712;2024-01-15T14:56:03;4.93;;;1.33;;
84638;SDS011;74869;51.924;5.712;2024-01-15T14:58:29;4.63;;;0.77;;